Time;durP1;ratioP1;P1;durP2;ratioP2;P2;SDS_P1;SDS_P2;PMS_P1;PMS_P2;Temp;Humidity;BMP_temperature;BMP_pressure;BME280_temperature;BME280_humidity;BME280_pressure;Samples;Min_cycle;Max_cycle;Signal;HPM_P1;HPM_P2
2024/02/13 00:00:48;;;;;;;12.50;6.60;;;;;;;;;;5038063;28;20067;-58
2024/02/13 00:03:13;;;;;;;14.57;7.00;;;;;;;;;;5040299;28;20033;-58
2024/02/13 00:05:43;;;;;;;14.43;7.47;;;;;;;;;;5039159;28;20017;-57
2024/02/13 00:08:10;;;;;;;14.07;6.63;;;;;;;;;;5033786;28;20037;-57
2024/02/13 00:10:36;;;;;;;15.20;7.05;;;;;;;;;;5013840;28;20030;-57
2024/02/13 00:13:01;;;;;;;13.25;6.82;;;;;;;;;;5029976;28;20013;-56
2024/02/13 00:15:26;;;;;;;12.03;6.27;;;;;;;;;;5031498;28;20028;-57
2024/02/13 00:17:53;;;;;;;13.68;6.20;;;;;;;;;;5012925;28;20075;-57
2024/02/13 00:20:18;;;;;;;;;;;;;;;;;;5034298;28;20060;-58
2024/02/13 00:22:54;;;;;;;14.32;6.90;;;;;;;;;;5018691;28;19909;-57
2024/02/13 00:25:19;;;;;;;14.30;6.93;;;;;;;;;;5026188;28;20064;-61
2024/02/13 00:27:44;;;;;;;15.13;6.97;;;;;;;;;;5043530;28;20030;-58
2024/02/13 00:30:11;;;;;;;14.15;6.45;;;;;;;;;;5043043;28;20049;-58
2024/02/13 00:32:39;;;;;;;;;;;;;;;;;;5043980;28;20030;-57
2024/02/13 00:35:08;;;;;;;12.43;6.35;;;;;;;;;;5030210;28;19916;-59
2024/02/13 00:37:33;;;;;;;14.32;6.32;;;;;;;;;;5031790;28;20358;-57
2024/02/13 00:39:59;;;;;;;14.05;7.03;;;;;;;;;;5019979;28;20044;-58
2024/02/13 00:42:26;;;;;;;13.03;6.30;;;;;;;;;;5033664;28;20017;-58
2024/02/13 00:44:51;;;;;;;15.27;6.50;;;;;;;;;;5038237;28;20022;-56
2024/02/13 00:47:17;;;;;;;13.40;5.77;;;;;;;;;;5035846;28;20021;-57
2024/02/13 00:49:42;;;;;;;15.45;6.63;;;;;;;;;;5020706;28;20014;-58
2024/02/13 00:52:08;;;;;;;12.17;6.10;;;;;;;;;;5025649;28;20436;-58
2024/02/13 00:54:33;;;;;;;11.97;5.83;;;;;;;;;;5018095;28;20021;-57
2024/02/13 00:56:58;;;;;;;13.80;6.32;;;;;;;;;;5033583;28;20033;-58
2024/02/13 00:59:23;;;;;;;14.23;6.43;;;;;;;;;;5018298;28;20031;-57
2024/02/13 01:01:49;;;;;;;13.27;6.72;;;;;;;;;;5019819;28;20416;-57
2024/02/13 01:04:16;;;;;;;13.40;6.47;;;;;;;;;;5022420;28;20029;-58
2024/02/13 01:06:42;;;;;;;14.30;6.32;;;;;;;;;;5031845;28;20025;-58
2024/02/13 01:09:08;;;;;;;13.57;6.63;;;;;;;;;;5031217;28;20017;-57
2024/02/13 01:11:33;;;;;;;14.73;5.90;;;;;;;;;;5024352;28;20253;-59
2024/02/13 01:14:00;;;;;;;13.40;6.25;;;;;;;;;;5028506;28;20021;-58
2024/02/13 01:16:25;;;;;;;13.00;6.47;;;;;;;;;;5028450;28;20481;-58
2024/02/13 01:18:51;;;;;;;15.48;6.45;;;;;;;;;;5011920;28;20025;-57
2024/02/13 01:21:17;;;;;;;13.57;6.40;;;;;;;;;;5021745;28;20095;-57
2024/02/13 01:23:42;;;;;;;15.95;6.57;;;;;;;;;;5017216;28;20131;-57
2024/02/13 01:26:07;;;;;;;15.32;6.68;;;;;;;;;;5030016;28;20025;-58
2024/02/13 01:28:35;;;;;;;13.87;6.50;;;;;;;;;;5025380;28;20029;-58
2024/02/13 01:31:02;;;;;;;14.57;6.10;;;;;;;;;;5030441;28;20425;-58
2024/02/13 01:33:28;;;;;;;14.10;6.50;;;;;;;;;;5011302;28;20026;-56
2024/02/13 01:35:53;;;;;;;14.98;6.18;;;;;;;;;;5024808;28;20021;-56
2024/02/13 01:38:20;;;;;;;15.18;6.63;;;;;;;;;;5029763;28;20028;-58
2024/02/13 01:40:46;;;;;;;16.40;6.55;;;;;;;;;;5020803;28;20033;-58
2024/02/13 01:43:11;;;;;;;14.18;6.30;;;;;;;;;;5025628;28;20021;-56
2024/02/13 01:45:36;;;;;;;14.43;6.43;;;;;;;;;;5021896;28;20401;-57
2024/02/13 01:48:04;;;;;;;15.65;7.20;;;;;;;;;;5021832;28;20025;-56
2024/02/13 01:50:29;;;;;;;14.27;6.22;;;;;;;;;;5019286;28;20111;-57
2024/02/13 01:52:54;;;;;;;15.87;6.80;;;;;;;;;;5025823;28;20485;-57
2024/02/13 01:55:20;;;;;;;13.80;6.60;;;;;;;;;;5019663;28;20448;-57
2024/02/13 01:57:47;;;;;;;13.70;6.38;;;;;;;;;;5030157;28;20032;-58
2024/02/13 02:00:13;;;;;;;15.00;6.47;;;;;;;;;;5012801;28;20021;-57
2024/02/13 02:02:42;;;;;;;15.07;6.32;;;;;;;;;;5023529;28;20062;-58
2024/02/13 02:05:10;;;;;;;14.27;6.50;;;;;;;;;;5029085;28;20020;-58
2024/02/13 02:07:37;;;;;;;14.45;6.47;;;;;;;;;;5029668;28;20022;-57
2024/02/13 02:10:03;;;;;;;17.98;7.03;;;;;;;;;;5023944;28;20056;-57
2024/02/13 02:12:28;;;;;;;14.48;6.55;;;;;;;;;;5029179;28;20022;-57
2024/02/13 02:14:53;;;;;;;15.00;6.35;;;;;;;;;;5025898;28;20040;-57
2024/02/13 02:17:18;;;;;;;17.40;7.13;;;;;;;;;;5025520;28;20021;-57
2024/02/13 02:19:44;;;;;;;14.63;6.37;;;;;;;;;;5028499;28;20441;-57
2024/02/13 02:22:09;;;;;;;13.93;6.53;;;;;;;;;;5020560;28;20145;-57
2024/02/13 02:24:34;;;;;;;15.80;6.85;;;;;;;;;;5010890;28;20072;-57
2024/02/13 02:27:02;;;;;;;14.90;6.80;;;;;;;;;;5011569;28;20104;-58
2024/02/13 02:29:28;;;;;;;16.23;7.55;;;;;;;;;;5029660;28;20026;-56
2024/02/13 02:31:53;;;;;;;17.10;7.30;;;;;;;;;;5015603;28;20052;-57
2024/02/13 02:34:19;;;;;;;15.10;7.30;;;;;;;;;;5029998;28;20021;-58
2024/02/13 02:36:44;;;;;;;15.85;6.68;;;;;;;;;;5028120;28;20105;-56
2024/02/13 02:39:09;;;;;;;16.25;6.97;;;;;;;;;;5030769;28;20095;-57
2024/02/13 02:41:35;;;;;;;18.33;7.47;;;;;;;;;;5034056;28;20032;-57
2024/02/13 02:44:00;;;;;;;17.67;7.20;;;;;;;;;;5034748;28;20441;-57
2024/02/13 02:46:25;;;;;;;19.40;7.97;;;;;;;;;;5022808;28;20541;-58
2024/02/13 02:48:50;;;;;;;16.02;7.68;;;;;;;;;;5031441;28;20025;-57
2024/02/13 02:51:15;;;;;;;18.95;8.40;;;;;;;;;;5025955;28;20034;-58
2024/02/13 02:53:40;;;;;;;16.70;7.83;;;;;;;;;;5032721;28;20116;-58
2024/02/13 02:56:06;;;;;;;17.63;7.93;;;;;;;;;;5025643;28;20084;-57
2024/02/13 02:58:31;;;;;;;16.60;6.85;;;;;;;;;;5023719;28;20134;-57
2024/02/13 03:00:56;;;;;;;14.55;6.45;;;;;;;;;;5031142;28;20026;-56
2024/02/13 03:03:21;;;;;;;15.50;6.72;;;;;;;;;;5033162;28;20025;-57
2024/02/13 03:05:47;;;;;;;14.80;7.15;;;;;;;;;;5034512;28;20544;-57
2024/02/13 03:08:12;;;;;;;14.32;7.05;;;;;;;;;;5033266;28;20037;-59
2024/02/13 03:10:37;;;;;;;15.90;7.43;;;;;;;;;;5030578;28;20029;-57
2024/02/13 03:13:03;;;;;;;14.50;6.80;;;;;;;;;;5034221;28;20055;-56
2024/02/13 03:15:28;;;;;;;16.13;8.20;;;;;;;;;;5033732;28;20492;-57
2024/02/13 03:17:54;;;;;;;16.52;8.30;;;;;;;;;;5033668;28;20030;-56
2024/02/13 03:20:19;;;;;;;15.83;7.17;;;;;;;;;;5032724;28;20033;-58
2024/02/13 03:22:44;;;;;;;16.33;7.70;;;;;;;;;;5032628;28;20485;-57
2024/02/13 03:25:10;;;;;;;17.17;7.83;;;;;;;;;;5033034;28;20026;-58
2024/02/13 03:27:35;;;;;;;17.42;7.80;;;;;;;;;;5033581;28;20045;-57
2024/02/13 03:30:02;;;;;;;17.10;7.45;;;;;;;;;;5028603;28;20018;-57
2024/02/13 03:32:27;;;;;;;14.00;6.35;;;;;;;;;;5031947;28;20067;-58
2024/02/13 03:34:53;;;;;;;13.18;6.57;;;;;;;;;;5030142;28;20041;-57
2024/02/13 03:37:18;;;;;;;15.80;6.78;;;;;;;;;;5032176;28;20030;-58
2024/02/13 03:39:43;;;;;;;13.13;6.43;;;;;;;;;;5033201;28;20022;-58
2024/02/13 03:42:11;;;;;;;14.43;6.30;;;;;;;;;;5033414;28;20079;-57
2024/02/13 03:44:39;;;;;;;13.98;6.55;;;;;;;;;;5032867;28;20478;-57
2024/02/13 03:47:07;;;;;;;12.77;6.38;;;;;;;;;;5029698;28;20036;-56
2024/02/13 03:49:32;;;;;;;12.63;5.97;;;;;;;;;;5033113;28;20049;-57
2024/02/13 03:51:59;;;;;;;13.15;6.28;;;;;;;;;;5020377;28;20514;-58
2024/02/13 03:54:24;;;;;;;11.77;6.07;;;;;;;;;;5031992;28;20029;-58
2024/02/13 03:56:49;;;;;;;15.43;6.63;;;;;;;;;;5032137;28;20095;-57
2024/02/13 03:59:15;;;;;;;16.50;6.75;;;;;;;;;;5028670;28;20036;-57
2024/02/13 04:01:42;;;;;;;12.20;6.40;;;;;;;;;;5030378;28;20064;-58
2024/02/13 04:04:08;;;;;;;12.27;6.05;;;;;;;;;;5029965;28;20022;-57
2024/02/13 04:06:33;;;;;;;13.18;6.65;;;;;;;;;;5035256;28;20127;-57
2024/02/13 04:08:59;;;;;;;12.77;6.95;;;;;;;;;;5036074;28;20080;-57
2024/02/13 04:11:27;;;;;;;14.57;6.68;;;;;;;;;;5021818;28;20026;-57
2024/02/13 04:13:52;;;;;;;17.75;7.30;;;;;;;;;;5032675;28;20104;-59
2024/02/13 04:16:18;;;;;;;13.57;6.30;;;;;;;;;;5026872;28;20116;-57
2024/02/13 04:18:43;;;;;;;13.00;6.07;;;;;;;;;;5033085;28;20013;-57
2024/02/13 04:21:15;;;;;;;12.40;6.43;;;;;;;;;;5032739;28;20033;-57
2024/02/13 04:23:40;;;;;;;11.25;5.20;;;;;;;;;;5032446;28;20022;-57
2024/02/13 04:26:05;;;;;;;11.52;5.88;;;;;;;;;;5031599;28;20048;-57
2024/02/13 04:28:30;;;;;;;12.52;6.00;;;;;;;;;;5028370;28;20076;-57
2024/02/13 04:30:56;;;;;;;15.30;6.67;;;;;;;;;;5024745;28;20029;-57
2024/02/13 04:33:21;;;;;;;14.30;5.87;;;;;;;;;;5028786;28;20025;-57
2024/02/13 04:35:47;;;;;;;12.70;6.50;;;;;;;;;;5032372;28;20037;-58
2024/02/13 04:38:12;;;;;;;12.38;6.07;;;;;;;;;;5032791;28;20028;-57
2024/02/13 04:40:37;;;;;;;12.37;6.37;;;;;;;;;;5032480;28;20009;-57
2024/02/13 04:43:02;;;;;;;14.48;6.28;;;;;;;;;;5032093;28;20465;-57
2024/02/13 04:45:28;;;;;;;13.57;6.30;;;;;;;;;;5032202;28;20021;-57
2024/02/13 04:47:53;;;;;;;9.50;4.78;;;;;;;;;;5027639;28;20464;-57
2024/02/13 04:50:18;;;;;;;13.30;5.90;;;;;;;;;;5036842;28;20047;-57
2024/02/13 04:52:43;;;;;;;10.90;4.78;;;;;;;;;;5047069;28;20013;-57
2024/02/13 04:55:10;;;;;;;14.03;6.03;;;;;;;;;;5045012;28;20049;-59
2024/02/13 04:57:35;;;;;;;11.30;5.65;;;;;;;;;;5044409;28;20056;-58
2024/02/13 05:00:05;;;;;;;13.70;6.50;;;;;;;;;;5038784;28;20021;-59
2024/02/13 05:02:32;;;;;;;11.38;5.32;;;;;;;;;;5035182;28;20035;-58
2024/02/13 05:07:44;;;;;;;11.88;6.03;;;;;;;;;;5043058;28;20036;-58
2024/02/13 05:10:10;;;;;;;14.05;6.15;;;;;;;;;;5028842;28;20017;-57
2024/02/13 05:12:35;;;;;;;13.38;6.13;;;;;;;;;;5030888;28;20021;-58
2024/02/13 05:15:02;;;;;;;10.48;5.45;;;;;;;;;;5014091;28;20057;-58
2024/02/13 05:17:27;;;;;;;11.55;5.60;;;;;;;;;;5029806;28;20037;-58
2024/02/13 05:19:53;;;;;;;14.57;5.38;;;;;;;;;;5019724;28;20448;-57
2024/02/13 05:22:19;;;;;;;13.75;5.30;;;;;;;;;;5029806;28;20030;-58
2024/02/13 05:24:45;;;;;;;12.98;5.00;;;;;;;;;;5016695;28;20060;-58
2024/02/13 05:27:10;;;;;;;12.02;5.28;;;;;;;;;;5022454;28;20076;-59
2024/02/13 05:29:36;;;;;;;10.23;4.72;;;;;;;;;;5035752;28;20017;-57
2024/02/13 05:32:03;;;;;;;11.38;4.85;;;;;;;;;;5038827;28;20060;-58
2024/02/13 05:34:28;;;;;;;11.27;4.70;;;;;;;;;;5040010;28;20021;-59
2024/02/13 05:36:57;;;;;;;10.40;4.90;;;;;;;;;;5029131;28;20037;-57
2024/02/13 05:39:23;;;;;;;10.57;4.75;;;;;;;;;;5036862;28;20044;-59
2024/02/13 05:41:48;;;;;;;13.40;4.40;;;;;;;;;;5021574;28;20038;-58
2024/02/13 05:44:14;;;;;;;10.27;4.30;;;;;;;;;;5014519;28;20038;-61
2024/02/13 05:46:39;;;;;;;11.25;4.85;;;;;;;;;;5014547;28;20033;-58
2024/02/13 05:49:04;;;;;;;10.70;4.33;;;;;;;;;;5024471;28;20392;-58
2024/02/13 05:51:29;;;;;;;9.10;4.13;;;;;;;;;;5019989;28;20021;-58
2024/02/13 05:53:55;;;;;;;10.07;4.33;;;;;;;;;;5014939;28;20083;-58
2024/02/13 05:56:20;;;;;;;8.75;4.00;;;;;;;;;;5030187;28;20037;-57
2024/02/13 05:58:45;;;;;;;8.75;4.10;;;;;;;;;;5028378;28;20588;-57
2024/02/13 06:01:13;;;;;;;9.33;4.43;;;;;;;;;;5029082;28;20022;-57
2024/02/13 06:03:38;;;;;;;10.07;4.60;;;;;;;;;;5030488;28;20028;-58
2024/02/13 06:06:05;;;;;;;9.02;3.78;;;;;;;;;;5021896;28;20025;-58
2024/02/13 06:08:30;;;;;;;9.40;4.13;;;;;;;;;;5032664;28;20028;-58
2024/02/13 06:10:55;;;;;;;10.48;4.50;;;;;;;;;;5029375;28;20046;-58
2024/02/13 06:13:20;;;;;;;10.40;4.00;;;;;;;;;;5023287;28;20021;-56
2024/02/13 06:15:46;;;;;;;8.38;4.13;;;;;;;;;;5024465;28;20029;-57
2024/02/13 06:18:11;;;;;;;8.17;3.80;;;;;;;;;;5024164;28;20033;-57
2024/02/13 06:20:36;;;;;;;8.60;4.55;;;;;;;;;;5028429;28;20037;-58
2024/02/13 06:23:01;;;;;;;9.53;4.13;;;;;;;;;;5019496;28;20099;-57
2024/02/13 06:25:27;;;;;;;10.63;5.00;;;;;;;;;;5026731;28;20041;-58
2024/02/13 06:27:52;;;;;;;9.77;4.03;;;;;;;;;;5025249;28;20029;-57
2024/02/13 06:30:17;;;;;;;10.25;4.22;;;;;;;;;;5021191;28;20025;-57
2024/02/13 06:32:42;;;;;;;9.73;4.60;;;;;;;;;;5022114;28;20025;-57
2024/02/13 06:35:08;;;;;;;11.50;5.17;;;;;;;;;;5030999;28;20109;-56
2024/02/13 06:37:33;;;;;;;9.00;4.28;;;;;;;;;;5019713;28;20104;-56
2024/02/13 06:39:58;;;;;;;9.75;4.20;;;;;;;;;;5025044;28;20025;-56
2024/02/13 06:42:24;;;;;;;10.60;4.57;;;;;;;;;;5023270;28;20037;-57
2024/02/13 06:44:49;;;;;;;10.07;4.55;;;;;;;;;;5034175;28;20558;-58
2024/02/13 06:47:14;;;;;;;9.90;4.70;;;;;;;;;;5026942;28;20104;-57
2024/02/13 06:49:39;;;;;;;9.40;4.20;;;;;;;;;;5022098;28;20116;-57
2024/02/13 06:52:05;;;;;;;13.13;4.33;;;;;;;;;;5026043;28;20067;-57
2024/02/13 06:54:30;;;;;;;7.82;3.75;;;;;;;;;;5019260;28;20029;-58
2024/02/13 06:56:56;;;;;;;9.20;4.53;;;;;;;;;;5028873;28;20485;-58
2024/02/13 06:59:21;;;;;;;10.85;4.25;;;;;;;;;;5021924;28;20038;-57
2024/02/13 07:01:46;;;;;;;9.77;4.43;;;;;;;;;;5020285;28;20109;-57
2024/02/13 07:04:11;;;;;;;10.13;4.53;;;;;;;;;;5027389;28;20095;-59
2024/02/13 07:06:37;;;;;;;9.43;4.13;;;;;;;;;;5024859;28;20045;-57
2024/02/13 07:09:02;;;;;;;9.35;4.30;;;;;;;;;;5020070;28;20486;-58
2024/02/13 07:11:27;;;;;;;9.38;3.97;;;;;;;;;;5030729;28;20074;-58
2024/02/13 07:13:52;;;;;;;11.03;4.20;;;;;;;;;;5020566;28;20346;-58
2024/02/13 07:16:17;;;;;;;7.53;3.90;;;;;;;;;;5027989;28;20247;-60
2024/02/13 07:18:42;;;;;;;10.77;4.32;;;;;;;;;;5028636;28;20017;-58
2024/02/13 07:21:08;;;;;;;10.70;3.83;;;;;;;;;;5018330;28;20485;-58
2024/02/13 07:23:34;;;;;;;7.78;3.40;;;;;;;;;;5024551;28;20083;-58
2024/02/13 07:26:02;;;;;;;9.82;4.13;;;;;;;;;;5023479;28;20017;-58
2024/02/13 07:28:27;;;;;;;11.35;4.28;;;;;;;;;;5024025;28;20066;-57
2024/02/13 07:30:54;;;;;;;8.23;4.05;;;;;;;;;;5017953;28;20156;-56
2024/02/13 07:33:19;;;;;;;9.48;3.45;;;;;;;;;;5030333;28;20035;-57
2024/02/13 07:35:45;;;;;;;10.23;3.93;;;;;;;;;;5031797;28;20025;-57
2024/02/13 07:38:10;;;;;;;9.18;4.00;;;;;;;;;;5031952;28;20820;-57
2024/02/13 07:40:35;;;;;;;8.90;4.10;;;;;;;;;;5040238;28;20021;-58
2024/02/13 07:43:06;;;;;;;11.05;4.85;;;;;;;;;;5045918;28;20068;-59
2024/02/13 07:45:31;;;;;;;9.75;4.45;;;;;;;;;;5029578;28;20095;-58
2024/02/13 07:47:57;;;;;;;10.57;4.15;;;;;;;;;;5049525;28;20072;-58
2024/02/13 07:50:22;;;;;;;7.82;3.55;;;;;;;;;;5022479;28;20032;-57
2024/02/13 07:52:48;;;;;;;8.23;3.83;;;;;;;;;;5026424;28;20018;-57
2024/02/13 07:55:13;;;;;;;11.57;4.13;;;;;;;;;;5025359;28;20030;-57
2024/02/13 07:57:38;;;;;;;8.98;3.42;;;;;;;;;;5025823;28;20029;-57
2024/02/13 08:00:04;;;;;;;9.55;4.10;;;;;;;;;;5025030;28;20022;-57
2024/02/13 08:02:29;;;;;;;10.02;3.58;;;;;;;;;;5013689;28;20037;-59
2024/02/13 08:04:54;;;;;;;11.50;3.90;;;;;;;;;;5030176;28;20041;-56
2024/02/13 08:07:20;;;;;;;6.85;3.30;;;;;;;;;;5032253;28;20584;-57
2024/02/13 08:09:45;;;;;;;7.57;2.90;;;;;;;;;;5029388;28;20049;-57
2024/02/13 08:12:12;;;;;;;8.45;3.22;;;;;;;;;;5030705;28;20024;-57
2024/02/13 08:14:38;;;;;;;;;;;;;;;;;;5029948;28;20031;-57
2024/02/13 08:17:08;;;;;;;10.25;3.70;;;;;;;;;;5034459;28;20066;-58
2024/02/13 08:19:33;;;;;;;9.85;3.10;;;;;;;;;;5032098;28;20025;-58
2024/02/13 08:22:00;;;;;;;7.65;2.97;;;;;;;;;;5033617;28;20029;-57
2024/02/13 08:24:25;;;;;;;9.20;3.83;;;;;;;;;;5035791;28;20044;-58
2024/02/13 08:26:52;;;;;;;6.83;2.87;;;;;;;;;;5046099;28;20021;-57
2024/02/13 08:29:18;;;;;;;7.65;3.15;;;;;;;;;;5052415;28;20030;-57
2024/02/13 08:31:43;;;;;;;7.07;3.23;;;;;;;;;;5048906;28;20049;-60
2024/02/13 08:34:08;;;;;;;7.43;3.03;;;;;;;;;;5039205;28;20075;-58
2024/02/13 08:36:33;;;;;;;7.65;3.03;;;;;;;;;;5033388;28;20144;-57
2024/02/13 08:39:00;;;;;;;6.13;2.90;;;;;;;;;;5031996;28;20401;-58
2024/02/13 08:41:26;;;;;;;7.30;3.35;;;;;;;;;;5032093;28;20017;-58
2024/02/13 08:43:51;;;;;;;7.00;3.13;;;;;;;;;;5032645;28;20014;-57
2024/02/13 08:46:19;;;;;;;10.57;3.03;;;;;;;;;;5032518;28;20017;-63
2024/02/13 08:48:44;;;;;;;10.50;2.80;;;;;;;;;;5029649;28;20024;-57
2024/02/13 08:51:09;;;;;;;9.13;3.13;;;;;;;;;;5027365;28;20014;-57
2024/02/13 08:53:35;;;;;;;8.10;3.05;;;;;;;;;;5026159;28;20036;-58
2024/02/13 08:56:00;;;;;;;8.95;3.30;;;;;;;;;;5026714;28;20552;-57
2024/02/13 08:58:26;;;;;;;9.20;3.30;;;;;;;;;;5030634;28;20021;-58
2024/02/13 09:00:52;;;;;;;11.90;4.28;;;;;;;;;;5031410;28;20048;-58
2024/02/13 09:03:17;;;;;;;6.20;2.95;;;;;;;;;;5031260;28;20018;-57
2024/02/13 09:05:42;;;;;;;9.20;3.58;;;;;;;;;;5031693;28;20112;-59
2024/02/13 09:08:08;;;;;;;7.70;3.40;;;;;;;;;;5028258;28;20033;-57
2024/02/13 09:10:33;;;;;;;9.55;3.35;;;;;;;;;;5026835;28;20033;-58
2024/02/13 09:12:59;;;;;;;8.93;3.43;;;;;;;;;;5029738;28;20040;-58
2024/02/13 09:15:25;;;;;;;10.73;3.58;;;;;;;;;;5031286;28;20029;-58
2024/02/13 09:17:51;;;;;;;8.43;3.38;;;;;;;;;;5031262;28;20393;-58
2024/02/13 09:20:16;;;;;;;10.52;3.70;;;;;;;;;;5031616;28;20103;-57
2024/02/13 09:22:44;;;;;;;11.00;4.25;;;;;;;;;;5031227;28;20079;-58
2024/02/13 09:25:13;;;;;;;12.88;3.72;;;;;;;;;;5029692;28;20029;-58
2024/02/13 09:27:40;;;;;;;8.93;3.85;;;;;;;;;;5031437;28;20116;-58
2024/02/13 09:30:06;;;;;;;10.65;3.50;;;;;;;;;;5031803;28;20022;-57
2024/02/13 09:32:34;;;;;;;9.45;3.30;;;;;;;;;;5030013;28;20428;-58
2024/02/13 09:34:59;;;;;;;8.25;3.22;;;;;;;;;;5031236;28;20570;-58
2024/02/13 09:37:26;;;;;;;9.90;3.65;;;;;;;;;;5032021;28;20057;-58
2024/02/13 09:39:51;;;;;;;10.20;3.42;;;;;;;;;;5032040;28;20082;-57
2024/02/13 09:42:17;;;;;;;8.48;3.53;;;;;;;;;;5032502;28;20021;-57
2024/02/13 09:44:43;;;;;;;12.27;3.75;;;;;;;;;;5035950;28;20017;-56
2024/02/13 09:47:08;;;;;;;8.82;3.40;;;;;;;;;;5034319;28;20041;-57
2024/02/13 09:49:35;;;;;;;8.93;3.55;;;;;;;;;;5041107;28;20032;-58
2024/02/13 09:52:01;;;;;;;9.55;3.33;;;;;;;;;;5043968;28;20014;-59
2024/02/13 09:54:27;;;;;;;8.45;3.25;;;;;;;;;;5027058;28;20025;-64
2024/02/13 09:56:52;;;;;;;7.60;3.25;;;;;;;;;;5042421;28;20017;-59
2024/02/13 09:59:19;;;;;;;14.00;4.03;;;;;;;;;;5042869;28;20040;-58
2024/02/13 10:01:45;;;;;;;8.20;3.30;;;;;;;;;;5032982;28;20025;-59
2024/02/13 10:04:10;;;;;;;7.55;3.20;;;;;;;;;;5031138;28;20059;-57
2024/02/13 10:06:37;;;;;;;10.80;3.17;;;;;;;;;;5032200;28;20079;-57
2024/02/13 10:09:02;;;;;;;11.48;3.17;;;;;;;;;;5030837;28;20087;-57
2024/02/13 10:11:31;;;;;;;8.30;2.90;;;;;;;;;;5028272;28;20025;-58
2024/02/13 10:13:56;;;;;;;11.35;3.05;;;;;;;;;;5032785;28;20103;-56
2024/02/13 10:16:28;;;;;;;6.37;3.00;;;;;;;;;;5034848;28;20502;-58
2024/02/13 10:18:54;;;;;;;8.43;3.00;;;;;;;;;;5034924;28;20392;-58
2024/02/13 10:21:22;;;;;;;8.93;3.22;;;;;;;;;;5034165;28;20025;-57
2024/02/13 10:23:48;;;;;;;8.02;2.50;;;;;;;;;;5034229;28;20104;-58
2024/02/13 10:26:14;;;;;;;8.25;2.58;;;;;;;;;;5034601;28;20103;-57
2024/02/13 10:28:41;;;;;;;8.63;2.55;;;;;;;;;;5033356;28;20026;-57
2024/02/13 10:31:07;;;;;;;5.85;2.10;;;;;;;;;;5031916;28;20029;-58
2024/02/13 10:33:39;;;;;;;6.45;2.47;;;;;;;;;;5034086;28;20049;-57
2024/02/13 10:36:04;;;;;;;7.15;2.97;;;;;;;;;;5032379;28;20026;-58
2024/02/13 10:38:33;;;;;;;7.55;2.50;;;;;;;;;;5031430;28;20017;-57
2024/02/13 10:40:59;;;;;;;7.90;2.50;;;;;;;;;;5034057;28;20501;-56
2024/02/13 10:43:27;;;;;;;5.65;2.35;;;;;;;;;;5033107;28;20034;-58
2024/02/13 10:45:54;;;;;;;5.32;2.38;;;;;;;;;;5035213;28;20021;-56
2024/02/13 10:48:30;;;;;;;5.28;2.60;;;;;;;;;;5034667;28;20021;-59
2024/02/13 10:50:57;;;;;;;5.47;2.20;;;;;;;;;;5035463;28;20437;-58
2024/02/13 10:53:23;;;;;;;5.95;2.50;;;;;;;;;;5032511;28;20047;-57
2024/02/13 10:55:50;;;;;;;7.43;2.70;;;;;;;;;;5034245;28;20033;-56
2024/02/13 10:58:15;;;;;;;5.97;2.30;;;;;;;;;;5040426;28;20013;-56
2024/02/13 11:00:41;;;;;;;7.87;2.30;;;;;;;;;;5037222;28;20010;-57
2024/02/13 11:03:08;;;;;;;7.05;2.42;;;;;;;;;;5016390;28;20382;-56
2024/02/13 11:05:34;;;;;;;5.60;2.15;;;;;;;;;;5015799;28;20017;-57
2024/02/13 11:07:59;;;;;;;6.68;2.10;;;;;;;;;;5015349;28;20508;-57
2024/02/13 11:10:29;;;;;;;9.90;2.07;;;;;;;;;;5014366;28;20433;-59
2024/02/13 11:12:54;;;;;;;5.45;2.00;;;;;;;;;;5035627;28;20101;-57
2024/02/13 11:15:19;;;;;;;5.23;1.90;;;;;;;;;;5026957;28;20061;-58
2024/02/13 11:17:52;;;;;;;5.40;1.80;;;;;;;;;;5038537;28;20483;-57
2024/02/13 11:20:21;;;;;;;4.47;1.80;;;;;;;;;;5042994;28;20028;-58
2024/02/13 11:22:57;;;;;;;5.50;1.73;;;;;;;;;;5033412;28;20497;-59
2024/02/13 11:25:26;;;;;;;5.38;1.90;;;;;;;;;;5034569;28;20087;-56
2024/02/13 11:27:55;;;;;;;4.47;1.77;;;;;;;;;;5033662;28;20025;-58
2024/02/13 11:30:21;;;;;;;5.88;2.10;;;;;;;;;;5034162;28;20100;-58
2024/02/13 11:32:54;;;;;;;7.40;1.90;;;;;;;;;;5030880;28;20544;-59
2024/02/13 11:35:21;;;;;;;8.55;2.08;;;;;;;;;;5032499;28;20400;-57
2024/02/13 11:37:46;;;;;;;5.80;1.90;;;;;;;;;;5033053;28;20021;-57
2024/02/13 11:40:12;;;;;;;9.50;2.13;;;;;;;;;;5031548;28;20500;-57
2024/02/13 11:42:38;;;;;;;5.60;1.83;;;;;;;;;;5032812;28;20025;-57
2024/02/13 11:45:05;;;;;;;6.78;2.10;;;;;;;;;;5027526;28;20021;-57
2024/02/13 11:47:30;;;;;;;7.00;2.40;;;;;;;;;;5032900;28;20482;-58
2024/02/13 11:49:55;;;;;;;6.60;2.33;;;;;;;;;;5032809;28;20030;-58
2024/02/13 11:52:22;;;;;;;8.07;2.60;;;;;;;;;;5024696;28;20159;-57
2024/02/13 11:54:48;;;;;;;7.45;2.47;;;;;;;;;;5032686;28;20017;-58
2024/02/13 11:57:14;;;;;;;6.03;2.17;;;;;;;;;;5034024;28;20104;-57
2024/02/13 11:59:39;;;;;;;5.40;2.30;;;;;;;;;;5034424;28;20061;-57
2024/02/13 12:02:14;;;;;;;7.27;2.27;;;;;;;;;;5032892;28;20025;-58
2024/02/13 12:04:43;;;;;;;5.57;2.20;;;;;;;;;;5032600;28;20393;-58
2024/02/13 12:07:08;;;;;;;7.40;2.05;;;;;;;;;;5026963;28;20017;-57
2024/02/13 12:09:34;;;;;;;5.75;2.38;;;;;;;;;;5032793;28;20528;-58
2024/02/13 12:11:59;;;;;;;6.93;2.72;;;;;;;;;;5031511;28;20025;-58
2024/02/13 12:14:26;;;;;;;7.27;2.37;;;;;;;;;;5030924;28;20048;-57
2024/02/13 12:16:53;;;;;;;6.68;2.85;;;;;;;;;;5039837;28;20499;-59
2024/02/13 12:19:20;;;;;;;5.53;2.60;;;;;;;;;;5040027;28;20021;-59
2024/02/13 12:21:45;;;;;;;6.80;2.42;;;;;;;;;;5053556;28;20090;-58
2024/02/13 12:24:11;;;;;;;5.78;2.38;;;;;;;;;;5054048;28;20049;-58
2024/02/13 12:26:37;;;;;;;6.18;2.50;;;;;;;;;;5049681;28;20021;-59
2024/02/13 12:29:03;;;;;;;7.40;2.70;;;;;;;;;;5032089;28;20263;-57
2024/02/13 12:31:29;;;;;;;6.57;2.90;;;;;;;;;;5032886;28;20033;-58
2024/02/13 12:34:01;;;;;;;7.90;2.78;;;;;;;;;;5031135;28;20034;-56
2024/02/13 12:36:27;;;;;;;7.10;2.65;;;;;;;;;;5032127;28;20025;-57
2024/02/13 12:39:01;;;;;;;6.72;2.75;;;;;;;;;;5032624;28;20095;-58
2024/02/13 12:41:26;;;;;;;5.25;2.60;;;;;;;;;;5031417;28;20025;-58
2024/02/13 12:43:52;;;;;;;8.30;3.20;;;;;;;;;;5031509;28;20023;-57
2024/02/13 12:46:17;;;;;;;5.47;2.70;;;;;;;;;;5031534;28;20490;-57
2024/02/13 12:48:42;;;;;;;7.67;3.30;;;;;;;;;;5028986;28;20043;-58
2024/02/13 12:51:11;;;;;;;7.63;2.60;;;;;;;;;;5033866;28;20061;-58
2024/02/13 12:53:36;;;;;;;5.97;2.60;;;;;;;;;;5017983;28;20029;-58
2024/02/13 12:56:03;;;;;;;6.07;2.25;;;;;;;;;;5031103;28;20048;-59
2024/02/13 12:58:28;;;;;;;7.30;2.42;;;;;;;;;;5033204;28;20152;-59
2024/02/13 13:00:54;;;;;;;7.90;2.53;;;;;;;;;;5029959;28;20156;-58
2024/02/13 13:03:19;;;;;;;6.60;2.40;;;;;;;;;;5046448;28;20604;-58
2024/02/13 13:05:48;;;;;;;6.63;2.25;;;;;;;;;;5049916;28;20671;-58
2024/02/13 13:08:14;;;;;;;7.05;2.60;;;;;;;;;;5050004;28;20742;-58
2024/02/13 13:10:39;;;;;;;7.57;2.60;;;;;;;;;;5050140;28;20040;-57
2024/02/13 13:13:06;;;;;;;6.35;2.88;;;;;;;;;;5032436;28;20022;-57
2024/02/13 13:15:32;;;;;;;7.18;2.67;;;;;;;;;;5029860;28;20440;-57
2024/02/13 13:18:01;;;;;;;9.32;2.88;;;;;;;;;;5030005;28;20071;-58
2024/02/13 13:20:28;;;;;;;6.03;2.65;;;;;;;;;;5019948;28;20057;-58
2024/02/13 13:22:53;;;;;;;;;;;;;;;;;;5024373;28;20037;-58
2024/02/13 13:25:25;;;;;;;5.15;2.42;;;;;;;;;;5027622;28;19987;-57
2024/02/13 13:27:51;;;;;;;6.60;2.28;;;;;;;;;;5024383;28;20588;-58
2024/02/13 13:30:18;;;;;;;5.70;2.20;;;;;;;;;;5026728;28;20052;-58
2024/02/13 13:32:44;;;;;;;5.68;2.25;;;;;;;;;;5027031;28;20021;-58
2024/02/13 13:35:13;;;;;;;4.53;2.13;;;;;;;;;;5027472;28;20017;-56
2024/02/13 13:37:40;;;;;;;7.35;2.42;;;;;;;;;;5024319;28;20044;-58
2024/02/13 13:40:12;;;;;;;7.60;2.25;;;;;;;;;;5018119;28;20071;-58
2024/02/13 13:42:41;;;;;;;5.90;2.15;;;;;;;;;;5026698;28;20402;-57
2024/02/13 13:45:10;;;;;;;6.78;2.13;;;;;;;;;;5026771;28;20017;-57
2024/02/13 13:47:35;;;;;;;6.68;2.00;;;;;;;;;;5026953;28;20042;-56
2024/02/13 13:50:00;;;;;;;5.22;1.92;;;;;;;;;;5026842;28;20169;-56
2024/02/13 13:52:26;;;;;;;4.45;2.10;;;;;;;;;;5025901;28;20029;-58
2024/02/13 13:54:51;;;;;;;6.53;2.08;;;;;;;;;;5029727;28;20037;-59
2024/02/13 13:57:18;;;;;;;4.90;2.20;;;;;;;;;;5011352;28;20477;-58
2024/02/13 13:59:43;;;;;;;6.00;2.20;;;;;;;;;;5028963;28;20056;-58
2024/02/13 14:02:08;;;;;;;5.80;2.15;;;;;;;;;;5016336;28;20037;-58
2024/02/13 14:04:34;;;;;;;5.97;2.17;;;;;;;;;;5011360;28;20028;-57
2024/02/13 14:06:59;;;;;;;7.82;2.00;;;;;;;;;;5013989;28;20603;-58
2024/02/13 14:09:24;;;;;;;4.93;2.33;;;;;;;;;;5028178;28;20025;-58
2024/02/13 14:11:51;;;;;;;4.47;1.75;;;;;;;;;;5021921;28;20026;-57
2024/02/13 14:14:17;;;;;;;5.30;1.73;;;;;;;;;;5026373;28;20048;-56
2024/02/13 14:16:42;;;;;;;4.37;1.60;;;;;;;;;;5022787;28;20501;-57
2024/02/13 14:19:08;;;;;;;5.53;1.60;;;;;;;;;;5008121;28;20160;-58
2024/02/13 14:21:34;;;;;;;5.60;1.65;;;;;;;;;;5028529;28;20021;-57
2024/02/13 14:23:59;;;;;;;5.13;1.83;;;;;;;;;;5017534;28;20510;-57
2024/02/13 14:26:25;;;;;;;4.82;1.95;;;;;;;;;;5014885;28;20025;-57
2024/02/13 14:28:50;;;;;;;5.22;1.70;;;;;;;;;;5028929;28;20021;-57
2024/02/13 14:31:17;;;;;;;5.77;2.20;;;;;;;;;;5026840;28;20101;-57
2024/02/13 14:33:43;;;;;;;6.68;1.67;;;;;;;;;;5026894;28;20030;-57